sensor_id;sensor_type;location;lat;lon;timestamp;P1;durP1;ratioP1;P2;durP2;ratioP2
39970;SDS011;35425;51.142;17.178;2022-10-31T00:00:28;6.40;;;5.90;;
39970;SDS011;35425;51.142;17.178;2022-10-31T00:02:55;6.55;;;5.93;;
39970;SDS011;35425;51.142;17.178;2022-10-31T00:05:22;6.47;;;5.88;;
39970;SDS011;35425;51.142;17.178;2022-10-31T00:07:51;6.65;;;6.05;;
39970;SDS011;35425;51.142;17.178;2022-10-31T00:10:17;6.20;;;5.70;;
39970;SDS011;35425;51.142;17.178;2022-10-31T00:12:47;6.32;;;5.80;;
39970;SDS011;35425;51.142;17.178;2022-10-31T00:15:13;6.20;;;5.60;;
39970;SDS011;35425;51.142;17.178;2022-10-31T00:17:40;6.57;;;5.97;;
39970;SDS011;35425;51.142;17.178;2022-10-31T00:20:07;6.10;;;5.57;;
39970;SDS011;35425;51.142;17.178;2022-10-31T00:22:33;6.38;;;5.78;;
39970;SDS011;35425;51.142;17.178;2022-10-31T00:25:00;6.10;;;5.57;;
39970;SDS011;35425;51.142;17.178;2022-10-31T00:27:26;6.63;;;6.03;;
39970;SDS011;35425;51.142;17.178;2022-10-31T00:29:53;6.45;;;5.85;;
39970;SDS011;35425;51.142;17.178;2022-10-31T00:32:19;6.07;;;5.47;;
39970;SDS011;35425;51.142;17.178;2022-10-31T00:34:46;5.53;;;5.03;;
39970;SDS011;35425;51.142;17.178;2022-10-31T00:37:12;5.45;;;5.05;;
39970;SDS011;35425;51.142;17.178;2022-10-31T00:39:39;5.68;;;5.18;;
39970;SDS011;35425;51.142;17.178;2022-10-31T00:42:05;5.93;;;5.43;;
39970;SDS011;35425;51.142;17.178;2022-10-31T00:44:32;6.07;;;5.57;;
39970;SDS011;35425;51.142;17.178;2022-10-31T00:46:58;5.78;;;5.28;;
39970;SDS011;35425;51.142;17.178;2022-10-31T00:49:24;5.65;;;5.05;;
39970;SDS011;35425;51.142;17.178;2022-10-31T00:51:51;6.30;;;5.75;;
39970;SDS011;35425;51.142;17.178;2022-10-31T00:54:17;5.40;;;4.90;;
39970;SDS011;35425;51.142;17.178;2022-10-31T00:56:44;5.53;;;5.13;;
39970;SDS011;35425;51.142;17.178;2022-10-31T00:59:10;5.70;;;5.20;;
39970;SDS011;35425;51.142;17.178;2022-10-31T01:01:37;5.82;;;5.28;;
39970;SDS011;35425;51.142;17.178;2022-10-31T01:04:04;5.72;;;5.13;;
39970;SDS011;35425;51.142;17.178;2022-10-31T01:06:30;5.90;;;5.40;;
39970;SDS011;35425;51.142;17.178;2022-10-31T01:08:57;5.70;;;5.20;;
39970;SDS011;35425;51.142;17.178;2022-10-31T01:11:23;5.68;;;5.07;;
39970;SDS011;35425;51.142;17.178;2022-10-31T01:13:51;5.40;;;4.90;;
39970;SDS011;35425;51.142;17.178;2022-10-31T01:16:18;5.68;;;5.05;;
39970;SDS011;35425;51.142;17.178;2022-10-31T01:18:46;5.40;;;4.90;;
39970;SDS011;35425;51.142;17.178;2022-10-31T01:21:20;5.30;;;4.80;;
39970;SDS011;35425;51.142;17.178;2022-10-31T01:23:47;5.68;;;5.18;;
39970;SDS011;35425;51.142;17.178;2022-10-31T01:26:15;5.70;;;5.20;;
39970;SDS011;35425;51.142;17.178;2022-10-31T01:28:48;5.38;;;4.88;;
39970;SDS011;35425;51.142;17.178;2022-10-31T01:31:16;5.93;;;5.35;;
39970;SDS011;35425;51.142;17.178;2022-10-31T01:33:43;5.95;;;5.07;;
39970;SDS011;35425;51.142;17.178;2022-10-31T01:38:39;5.47;;;4.97;;
39970;SDS011;35425;51.142;17.178;2022-10-31T01:41:06;5.57;;;5.07;;
39970;SDS011;35425;51.142;17.178;2022-10-31T01:46:38;5.70;;;5.10;;
39970;SDS011;35425;51.142;17.178;2022-10-31T01:49:14;5.18;;;4.68;;
39970;SDS011;35425;51.142;17.178;2022-10-31T01:51:57;5.20;;;4.80;;
39970;SDS011;35425;51.142;17.178;2022-10-31T01:54:26;5.50;;;4.73;;
39970;SDS011;35425;51.142;17.178;2022-10-31T01:56:54;5.32;;;4.90;;
39970;SDS011;35425;51.142;17.178;2022-10-31T01:59:22;5.55;;;5.05;;
39970;SDS011;35425;51.142;17.178;2022-10-31T02:01:50;5.80;;;5.30;;
39970;SDS011;35425;51.142;17.178;2022-10-31T02:04:18;5.63;;;5.15;;
39970;SDS011;35425;51.142;17.178;2022-10-31T02:06:53;5.38;;;4.88;;
39970;SDS011;35425;51.142;17.178;2022-10-31T02:09:21;5.80;;;5.30;;
39970;SDS011;35425;51.142;17.178;2022-10-31T02:11:51;5.25;;;4.85;;
39970;SDS011;35425;51.142;17.178;2022-10-31T02:14:18;5.47;;;4.97;;
39970;SDS011;35425;51.142;17.178;2022-10-31T02:16:44;5.40;;;4.90;;
39970;SDS011;35425;51.142;17.178;2022-10-31T02:19:12;5.28;;;4.78;;
39970;SDS011;35425;51.142;17.178;2022-10-31T02:21:47;5.60;;;5.13;;
39970;SDS011;35425;51.142;17.178;2022-10-31T02:27:11;5.20;;;4.80;;
39970;SDS011;35425;51.142;17.178;2022-10-31T02:29:55;5.55;;;5.05;;
39970;SDS011;35425;51.142;17.178;2022-10-31T02:35:09;5.68;;;5.07;;
39970;SDS011;35425;51.142;17.178;2022-10-31T02:40:13;5.38;;;4.90;;
39970;SDS011;35425;51.142;17.178;2022-10-31T02:45:08;5.40;;;4.90;;
39970;SDS011;35425;51.142;17.178;2022-10-31T02:47:36;5.15;;;4.65;;
39970;SDS011;35425;51.142;17.178;2022-10-31T02:50:08;5.35;;;4.85;;
39970;SDS011;35425;51.142;17.178;2022-10-31T02:52:37;5.25;;;4.75;;
39970;SDS011;35425;51.142;17.178;2022-10-31T02:55:41;4.82;;;4.43;;
39970;SDS011;35425;51.142;17.178;2022-10-31T02:58:04;4.82;;;4.43;;
39970;SDS011;35425;51.142;17.178;2022-10-31T03:06:00;4.78;;;4.30;;
39970;SDS011;35425;51.142;17.178;2022-10-31T03:16:14;4.97;;;4.57;;
39970;SDS011;35425;51.142;17.178;2022-10-31T03:18:48;4.80;;;4.40;;
39970;SDS011;35425;51.142;17.178;2022-10-31T03:21:20;4.78;;;4.32;;
39970;SDS011;35425;51.142;17.178;2022-10-31T03:23:48;4.68;;;4.25;;
39970;SDS011;35425;51.142;17.178;2022-10-31T03:26:16;4.53;;;4.13;;
39970;SDS011;35425;51.142;17.178;2022-10-31T03:28:47;5.10;;;4.70;;
39970;SDS011;35425;51.142;17.178;2022-10-31T03:31:16;4.47;;;4.07;;
39970;SDS011;35425;51.142;17.178;2022-10-31T03:33:43;4.97;;;4.57;;
39970;SDS011;35425;51.142;17.178;2022-10-31T03:36:11;4.75;;;4.35;;
39970;SDS011;35425;51.142;17.178;2022-10-31T03:38:41;5.15;;;4.75;;
39970;SDS011;35425;51.142;17.178;2022-10-31T03:41:10;5.00;;;4.60;;
39970;SDS011;35425;51.142;17.178;2022-10-31T03:43:38;5.07;;;4.57;;
39970;SDS011;35425;51.142;17.178;2022-10-31T03:46:06;4.70;;;4.30;;
39970;SDS011;35425;51.142;17.178;2022-10-31T03:48:33;4.95;;;4.55;;
39970;SDS011;35425;51.142;17.178;2022-10-31T03:51:06;5.03;;;4.53;;
39970;SDS011;35425;51.142;17.178;2022-10-31T03:53:41;5.28;;;4.70;;
39970;SDS011;35425;51.142;17.178;2022-10-31T03:56:11;4.47;;;4.07;;
39970;SDS011;35425;51.142;17.178;2022-10-31T03:58:43;4.85;;;4.45;;
39970;SDS011;35425;51.142;17.178;2022-10-31T04:01:13;4.65;;;4.25;;
39970;SDS011;35425;51.142;17.178;2022-10-31T04:03:42;5.22;;;4.72;;
39970;SDS011;35425;51.142;17.178;2022-10-31T04:06:10;4.70;;;4.30;;
39970;SDS011;35425;51.142;17.178;2022-10-31T04:08:40;4.55;;;4.18;;
39970;SDS011;35425;51.142;17.178;2022-10-31T04:11:07;4.65;;;4.25;;
39970;SDS011;35425;51.142;17.178;2022-10-31T04:13:34;4.70;;;4.30;;
39970;SDS011;35425;51.142;17.178;2022-10-31T04:16:02;4.28;;;3.97;;
39970;SDS011;35425;51.142;17.178;2022-10-31T04:18:29;4.50;;;4.10;;
39970;SDS011;35425;51.142;17.178;2022-10-31T04:21:03;4.80;;;4.40;;
39970;SDS011;35425;51.142;17.178;2022-10-31T04:23:30;4.40;;;4.00;;
39970;SDS011;35425;51.142;17.178;2022-10-31T04:25:56;4.07;;;3.75;;
39970;SDS011;35425;51.142;17.178;2022-10-31T04:28:23;4.40;;;4.00;;
39970;SDS011;35425;51.142;17.178;2022-10-31T04:30:50;5.07;;;4.57;;
39970;SDS011;35425;51.142;17.178;2022-10-31T04:33:16;3.95;;;3.65;;
39970;SDS011;35425;51.142;17.178;2022-10-31T04:35:43;4.45;;;4.05;;
39970;SDS011;35425;51.142;17.178;2022-10-31T04:38:10;4.30;;;3.90;;
39970;SDS011;35425;51.142;17.178;2022-10-31T04:40:36;3.78;;;3.47;;
39970;SDS011;35425;51.142;17.178;2022-10-31T04:43:02;4.10;;;3.80;;
39970;SDS011;35425;51.142;17.178;2022-10-31T04:45:29;4.15;;;3.45;;
39970;SDS011;35425;51.142;17.178;2022-10-31T04:47:56;4.10;;;3.80;;
39970;SDS011;35425;51.142;17.178;2022-10-31T04:50:23;4.00;;;3.70;;
39970;SDS011;35425;51.142;17.178;2022-10-31T04:52:50;3.80;;;3.47;;
39970;SDS011;35425;51.142;17.178;2022-10-31T04:55:16;4.00;;;3.70;;
39970;SDS011;35425;51.142;17.178;2022-10-31T04:57:43;3.78;;;3.38;;
39970;SDS011;35425;51.142;17.178;2022-10-31T05:00:11;4.22;;;3.83;;
39970;SDS011;35425;51.142;17.178;2022-10-31T05:02:47;3.80;;;3.50;;
39970;SDS011;35425;51.142;17.178;2022-10-31T05:05:14;4.10;;;3.80;;
39970;SDS011;35425;51.142;17.178;2022-10-31T05:07:41;3.95;;;3.58;;
39970;SDS011;35425;51.142;17.178;2022-10-31T05:10:12;3.80;;;3.50;;
39970;SDS011;35425;51.142;17.178;2022-10-31T05:12:45;3.72;;;3.42;;
39970;SDS011;35425;51.142;17.178;2022-10-31T05:15:12;3.70;;;3.40;;
39970;SDS011;35425;51.142;17.178;2022-10-31T05:17:38;3.70;;;3.40;;
39970;SDS011;35425;51.142;17.178;2022-10-31T05:20:05;3.75;;;3.40;;
39970;SDS011;35425;51.142;17.178;2022-10-31T05:22:32;3.83;;;3.42;;
39970;SDS011;35425;51.142;17.178;2022-10-31T05:24:59;3.92;;;3.63;;
39970;SDS011;35425;51.142;17.178;2022-10-31T05:27:25;3.53;;;3.22;;
39970;SDS011;35425;51.142;17.178;2022-10-31T05:29:52;3.35;;;3.05;;
39970;SDS011;35425;51.142;17.178;2022-10-31T05:32:18;4.13;;;3.72;;
39970;SDS011;35425;51.142;17.178;2022-10-31T05:34:45;3.58;;;3.20;;
39970;SDS011;35425;51.142;17.178;2022-10-31T05:37:11;3.60;;;3.30;;
39970;SDS011;35425;51.142;17.178;2022-10-31T05:39:38;3.80;;;3.50;;
39970;SDS011;35425;51.142;17.178;2022-10-31T05:42:04;3.80;;;3.50;;
39970;SDS011;35425;51.142;17.178;2022-10-31T05:44:30;3.40;;;3.10;;
39970;SDS011;35425;51.142;17.178;2022-10-31T05:46:57;3.17;;;2.88;;
39970;SDS011;35425;51.142;17.178;2022-10-31T05:49:23;3.70;;;3.40;;
39970;SDS011;35425;51.142;17.178;2022-10-31T05:51:50;3.28;;;2.97;;
39970;SDS011;35425;51.142;17.178;2022-10-31T05:54:16;3.05;;;2.85;;
39970;SDS011;35425;51.142;17.178;2022-10-31T05:56:43;3.58;;;3.28;;
39970;SDS011;35425;51.142;17.178;2022-10-31T05:59:10;3.58;;;3.28;;
39970;SDS011;35425;51.142;17.178;2022-10-31T06:01:36;3.00;;;2.80;;
39970;SDS011;35425;51.142;17.178;2022-10-31T06:04:02;3.38;;;3.08;;
39970;SDS011;35425;51.142;17.178;2022-10-31T06:06:29;3.20;;;2.90;;
39970;SDS011;35425;51.142;17.178;2022-10-31T06:08:55;3.33;;;3.03;;
39970;SDS011;35425;51.142;17.178;2022-10-31T06:11:25;3.20;;;2.92;;
39970;SDS011;35425;51.142;17.178;2022-10-31T06:13:52;3.00;;;2.80;;
39970;SDS011;35425;51.142;17.178;2022-10-31T06:16:18;3.15;;;2.90;;
39970;SDS011;35425;51.142;17.178;2022-10-31T06:18:45;3.10;;;2.80;;
39970;SDS011;35425;51.142;17.178;2022-10-31T06:21:12;3.53;;;3.22;;
39970;SDS011;35425;51.142;17.178;2022-10-31T06:23:44;3.15;;;2.80;;
39970;SDS011;35425;51.142;17.178;2022-10-31T06:26:10;3.10;;;2.80;;
39970;SDS011;35425;51.142;17.178;2022-10-31T06:28:37;3.38;;;2.80;;
39970;SDS011;35425;51.142;17.178;2022-10-31T06:31:03;3.00;;;2.70;;
39970;SDS011;35425;51.142;17.178;2022-10-31T06:33:30;3.38;;;2.78;;
39970;SDS011;35425;51.142;17.178;2022-10-31T06:35:57;3.40;;;3.10;;
39970;SDS011;35425;51.142;17.178;2022-10-31T06:38:24;3.17;;;2.88;;
39970;SDS011;35425;51.142;17.178;2022-10-31T06:40:51;3.05;;;2.85;;
39970;SDS011;35425;51.142;17.178;2022-10-31T06:43:17;3.03;;;2.70;;
39970;SDS011;35425;51.142;17.178;2022-10-31T06:45:44;3.20;;;2.65;;
39970;SDS011;35425;51.142;17.178;2022-10-31T06:48:10;2.97;;;2.67;;
39970;SDS011;35425;51.142;17.178;2022-10-31T06:53:09;2.75;;;2.55;;
39970;SDS011;35425;51.142;17.178;2022-10-31T06:55:41;2.90;;;2.53;;
39970;SDS011;35425;51.142;17.178;2022-10-31T06:58:08;3.35;;;3.05;;
39970;SDS011;35425;51.142;17.178;2022-10-31T07:00:35;3.95;;;3.03;;
39970;SDS011;35425;51.142;17.178;2022-10-31T07:03:03;5.00;;;3.78;;
39970;SDS011;35425;51.142;17.178;2022-10-31T07:05:30;5.20;;;3.78;;
39970;SDS011;35425;51.142;17.178;2022-10-31T07:08:06;6.40;;;3.70;;
39970;SDS011;35425;51.142;17.178;2022-10-31T07:10:34;5.32;;;4.05;;
39970;SDS011;35425;51.142;17.178;2022-10-31T07:13:06;5.57;;;4.10;;
39970;SDS011;35425;51.142;17.178;2022-10-31T07:15:33;5.00;;;3.78;;
39970;SDS011;35425;51.142;17.178;2022-10-31T07:18:01;5.20;;;4.18;;
39970;SDS011;35425;51.142;17.178;2022-10-31T07:20:28;5.35;;;3.60;;
39970;SDS011;35425;51.142;17.178;2022-10-31T07:22:54;5.30;;;4.07;;
39970;SDS011;35425;51.142;17.178;2022-10-31T07:25:21;5.35;;;3.80;;
39970;SDS011;35425;51.142;17.178;2022-10-31T07:27:48;5.60;;;3.78;;
39970;SDS011;35425;51.142;17.178;2022-10-31T07:30:14;5.38;;;3.58;;
39970;SDS011;35425;51.142;17.178;2022-10-31T07:32:42;6.00;;;4.00;;
39970;SDS011;35425;51.142;17.178;2022-10-31T07:35:10;5.53;;;4.13;;
39970;SDS011;35425;51.142;17.178;2022-10-31T07:37:37;5.80;;;4.20;;
39970;SDS011;35425;51.142;17.178;2022-10-31T07:40:04;5.97;;;4.25;;
39970;SDS011;35425;51.142;17.178;2022-10-31T07:42:37;5.32;;;3.33;;
39970;SDS011;35425;51.142;17.178;2022-10-31T07:45:04;5.20;;;3.95;;
39970;SDS011;35425;51.142;17.178;2022-10-31T07:47:41;4.47;;;3.78;;
39970;SDS011;35425;51.142;17.178;2022-10-31T07:50:08;4.93;;;3.97;;
39970;SDS011;35425;51.142;17.178;2022-10-31T07:52:35;4.55;;;3.63;;
39970;SDS011;35425;51.142;17.178;2022-10-31T07:55:02;4.45;;;3.75;;
39970;SDS011;35425;51.142;17.178;2022-10-31T07:57:29;4.00;;;3.25;;
39970;SDS011;35425;51.142;17.178;2022-10-31T08:00:00;5.20;;;4.00;;
39970;SDS011;35425;51.142;17.178;2022-10-31T08:02:27;4.10;;;3.45;;
39970;SDS011;35425;51.142;17.178;2022-10-31T08:04:53;5.28;;;3.60;;
39970;SDS011;35425;51.142;17.178;2022-10-31T08:07:26;5.00;;;3.60;;
39970;SDS011;35425;51.142;17.178;2022-10-31T08:09:52;5.35;;;3.78;;
39970;SDS011;35425;51.142;17.178;2022-10-31T08:12:19;4.30;;;3.58;;
39970;SDS011;35425;51.142;17.178;2022-10-31T08:14:45;5.07;;;3.25;;
39970;SDS011;35425;51.142;17.178;2022-10-31T08:17:12;4.28;;;3.60;;
39970;SDS011;35425;51.142;17.178;2022-10-31T08:19:38;5.60;;;3.95;;
39970;SDS011;35425;51.142;17.178;2022-10-31T08:22:05;4.18;;;3.35;;
39970;SDS011;35425;51.142;17.178;2022-10-31T08:24:31;4.80;;;3.92;;
39970;SDS011;35425;51.142;17.178;2022-10-31T08:26:58;4.38;;;3.30;;
39970;SDS011;35425;51.142;17.178;2022-10-31T08:29:24;4.88;;;3.22;;
39970;SDS011;35425;51.142;17.178;2022-10-31T08:31:51;5.65;;;3.20;;
39970;SDS011;35425;51.142;17.178;2022-10-31T08:34:17;4.70;;;3.60;;
39970;SDS011;35425;51.142;17.178;2022-10-31T08:36:44;4.63;;;3.95;;
39970;SDS011;35425;51.142;17.178;2022-10-31T08:39:12;4.13;;;3.30;;
39970;SDS011;35425;51.142;17.178;2022-10-31T08:41:38;4.88;;;3.13;;
39970;SDS011;35425;51.142;17.178;2022-10-31T08:44:05;4.18;;;3.17;;
39970;SDS011;35425;51.142;17.178;2022-10-31T08:46:31;3.78;;;3.33;;
39970;SDS011;35425;51.142;17.178;2022-10-31T08:48:58;4.32;;;3.38;;
39970;SDS011;35425;51.142;17.178;2022-10-31T08:51:25;3.92;;;3.10;;
39970;SDS011;35425;51.142;17.178;2022-10-31T08:53:51;4.20;;;2.70;;
39970;SDS011;35425;51.142;17.178;2022-10-31T08:56:18;3.75;;;2.90;;
39970;SDS011;35425;51.142;17.178;2022-10-31T08:58:44;3.90;;;3.05;;
39970;SDS011;35425;51.142;17.178;2022-10-31T09:01:11;3.88;;;3.47;;
39970;SDS011;35425;51.142;17.178;2022-10-31T09:03:38;4.55;;;3.17;;
39970;SDS011;35425;51.142;17.178;2022-10-31T09:06:04;4.15;;;3.25;;
39970;SDS011;35425;51.142;17.178;2022-10-31T09:08:35;4.22;;;3.08;;
39970;SDS011;35425;51.142;17.178;2022-10-31T09:11:02;3.90;;;3.20;;
39970;SDS011;35425;51.142;17.178;2022-10-31T09:13:28;5.90;;;3.38;;
39970;SDS011;35425;51.142;17.178;2022-10-31T09:15:55;4.35;;;3.30;;
39970;SDS011;35425;51.142;17.178;2022-10-31T09:18:23;3.53;;;3.08;;
39970;SDS011;35425;51.142;17.178;2022-10-31T09:20:49;4.55;;;3.10;;
39970;SDS011;35425;51.142;17.178;2022-10-31T09:23:20;4.03;;;2.92;;
39970;SDS011;35425;51.142;17.178;2022-10-31T09:25:47;4.65;;;3.47;;
39970;SDS011;35425;51.142;17.178;2022-10-31T09:28:17;3.90;;;3.13;;
39970;SDS011;35425;51.142;17.178;2022-10-31T09:30:45;3.83;;;3.05;;
39970;SDS011;35425;51.142;17.178;2022-10-31T09:33:12;4.75;;;2.95;;
39970;SDS011;35425;51.142;17.178;2022-10-31T09:35:39;3.70;;;2.88;;
39970;SDS011;35425;51.142;17.178;2022-10-31T09:38:08;3.45;;;3.03;;
39970;SDS011;35425;51.142;17.178;2022-10-31T09:40:39;3.05;;;2.42;;
39970;SDS011;35425;51.142;17.178;2022-10-31T09:45:53;2.80;;;2.30;;
39970;SDS011;35425;51.142;17.178;2022-10-31T09:50:59;2.85;;;2.58;;
39970;SDS011;35425;51.142;17.178;2022-10-31T09:53:34;3.38;;;2.80;;
39970;SDS011;35425;51.142;17.178;2022-10-31T09:56:01;2.70;;;2.40;;
39970;SDS011;35425;51.142;17.178;2022-10-31T09:58:29;3.15;;;2.85;;
39970;SDS011;35425;51.142;17.178;2022-10-31T10:01:00;3.67;;;2.72;;
39970;SDS011;35425;51.142;17.178;2022-10-31T10:03:31;3.38;;;2.53;;
39970;SDS011;35425;51.142;17.178;2022-10-31T10:06:13;2.90;;;2.60;;
39970;SDS011;35425;51.142;17.178;2022-10-31T10:08:41;3.40;;;2.67;;
39970;SDS011;35425;51.142;17.178;2022-10-31T10:13:41;3.25;;;2.30;;
39970;SDS011;35425;51.142;17.178;2022-10-31T10:16:12;2.72;;;2.53;;
39970;SDS011;35425;51.142;17.178;2022-10-31T10:21:35;3.15;;;2.45;;
39970;SDS011;35425;51.142;17.178;2022-10-31T10:31:48;2.60;;;2.40;;
39970;SDS011;35425;51.142;17.178;2022-10-31T10:34:35;2.33;;;2.03;;
39970;SDS011;35425;51.142;17.178;2022-10-31T10:37:04;2.28;;;1.95;;
39970;SDS011;35425;51.142;17.178;2022-10-31T10:39:38;2.25;;;1.95;;
39970;SDS011;35425;51.142;17.178;2022-10-31T10:42:15;2.53;;;2.25;;
39970;SDS011;35425;51.142;17.178;2022-10-31T10:45:13;2.80;;;2.25;;
39970;SDS011;35425;51.142;17.178;2022-10-31T10:48:03;2.53;;;2.10;;
39970;SDS011;35425;51.142;17.178;2022-10-31T10:58:33;3.25;;;1.92;;
39970;SDS011;35425;51.142;17.178;2022-10-31T11:00:59;2.65;;;2.08;;
39970;SDS011;35425;51.142;17.178;2022-10-31T11:03:29;1.95;;;1.73;;
39970;SDS011;35425;51.142;17.178;2022-10-31T11:06:01;2.42;;;1.90;;
39970;SDS011;35425;51.142;17.178;2022-10-31T11:08:35;2.47;;;2.17;;
39970;SDS011;35425;51.142;17.178;2022-10-31T11:11:08;2.53;;;2.10;;
39970;SDS011;35425;51.142;17.178;2022-10-31T11:13:36;2.42;;;2.22;;
39970;SDS011;35425;51.142;17.178;2022-10-31T11:16:03;2.35;;;2.10;;
39970;SDS011;35425;51.142;17.178;2022-10-31T11:18:31;2.28;;;2.03;;
39970;SDS011;35425;51.142;17.178;2022-10-31T11:21:00;2.47;;;1.85;;
39970;SDS011;35425;51.142;17.178;2022-10-31T11:23:27;2.47;;;1.80;;
39970;SDS011;35425;51.142;17.178;2022-10-31T11:26:01;2.10;;;1.90;;
39970;SDS011;35425;51.142;17.178;2022-10-31T11:28:28;3.42;;;1.95;;
39970;SDS011;35425;51.142;17.178;2022-10-31T11:30:59;2.17;;;1.88;;
39970;SDS011;35425;51.142;17.178;2022-10-31T11:35:53;2.35;;;2.00;;
39970;SDS011;35425;51.142;17.178;2022-10-31T11:38:24;2.08;;;1.88;;
39970;SDS011;35425;51.142;17.178;2022-10-31T11:41:00;2.22;;;1.80;;
39970;SDS011;35425;51.142;17.178;2022-10-31T11:43:29;2.20;;;2.00;;
39970;SDS011;35425;51.142;17.178;2022-10-31T11:45:56;2.33;;;1.80;;
39970;SDS011;35425;51.142;17.178;2022-10-31T11:48:23;1.88;;;1.77;;
39970;SDS011;35425;51.142;17.178;2022-10-31T11:50:54;2.22;;;1.67;;
39970;SDS011;35425;51.142;17.178;2022-10-31T11:53:24;1.85;;;1.70;;
39970;SDS011;35425;51.142;17.178;2022-10-31T11:56:12;2.80;;;1.83;;
39970;SDS011;35425;51.142;17.178;2022-10-31T11:58:39;1.75;;;1.60;;
39970;SDS011;35425;51.142;17.178;2022-10-31T12:01:05;1.88;;;1.70;;
39970;SDS011;35425;51.142;17.178;2022-10-31T12:03:42;2.22;;;1.73;;
39970;SDS011;35425;51.142;17.178;2022-10-31T12:06:20;2.30;;;1.73;;
39970;SDS011;35425;51.142;17.178;2022-10-31T12:08:47;1.70;;;1.60;;
39970;SDS011;35425;51.142;17.178;2022-10-31T12:11:49;1.80;;;1.60;;
39970;SDS011;35425;51.142;17.178;2022-10-31T12:22:20;2.53;;;1.83;;
39970;SDS011;35425;51.142;17.178;2022-10-31T12:32:37;1.63;;;1.45;;
39970;SDS011;35425;51.142;17.178;2022-10-31T12:35:08;1.80;;;1.55;;
39970;SDS011;35425;51.142;17.178;2022-10-31T12:45:57;2.20;;;1.80;;
39970;SDS011;35425;51.142;17.178;2022-10-31T12:51:56;1.92;;;1.73;;
39970;SDS011;35425;51.142;17.178;2022-10-31T12:59:35;1.95;;;1.38;;
39970;SDS011;35425;51.142;17.178;2022-10-31T13:02:17;1.50;;;1.40;;
39970;SDS011;35425;51.142;17.178;2022-10-31T13:07:19;2.55;;;1.48;;
39970;SDS011;35425;51.142;17.178;2022-10-31T13:12:17;1.63;;;1.48;;
39970;SDS011;35425;51.142;17.178;2022-10-31T13:14:46;2.65;;;1.70;;
39970;SDS011;35425;51.142;17.178;2022-10-31T13:20:05;1.75;;;1.65;;
39970;SDS011;35425;51.142;17.178;2022-10-31T13:22:35;1.50;;;1.40;;
39970;SDS011;35425;51.142;17.178;2022-10-31T13:30:26;2.03;;;1.38;;
39970;SDS011;35425;51.142;17.178;2022-10-31T13:33:07;2.13;;;1.45;;
39970;SDS011;35425;51.142;17.178;2022-10-31T13:38:11;2.38;;;1.40;;
39970;SDS011;35425;51.142;17.178;2022-10-31T13:45:53;1.58;;;1.40;;
39970;SDS011;35425;51.142;17.178;2022-10-31T13:50:57;1.88;;;1.30;;
39970;SDS011;35425;51.142;17.178;2022-10-31T13:53:35;1.85;;;1.50;;
39970;SDS011;35425;51.142;17.178;2022-10-31T13:56:03;1.75;;;1.30;;
39970;SDS011;35425;51.142;17.178;2022-10-31T13:58:31;1.95;;;1.45;;
39970;SDS011;35425;51.142;17.178;2022-10-31T14:00:59;2.10;;;1.27;;
39970;SDS011;35425;51.142;17.178;2022-10-31T14:03:26;1.33;;;1.20;;
39970;SDS011;35425;51.142;17.178;2022-10-31T14:06:14;2.60;;;1.45;;
39970;SDS011;35425;51.142;17.178;2022-10-31T14:08:47;1.58;;;1.20;;
39970;SDS011;35425;51.142;17.178;2022-10-31T14:11:22;1.60;;;1.25;;
39970;SDS011;35425;51.142;17.178;2022-10-31T14:13:49;2.03;;;1.38;;
39970;SDS011;35425;51.142;17.178;2022-10-31T14:16:17;1.58;;;1.05;;
39970;SDS011;35425;51.142;17.178;2022-10-31T14:18:46;1.30;;;1.20;;
39970;SDS011;35425;51.142;17.178;2022-10-31T14:23:50;1.20;;;1.02;;
39970;SDS011;35425;51.142;17.178;2022-10-31T14:26:29;1.35;;;1.25;;
39970;SDS011;35425;51.142;17.178;2022-10-31T14:28:57;1.38;;;1.27;;
39970;SDS011;35425;51.142;17.178;2022-10-31T14:33:53;1.63;;;1.20;;
39970;SDS011;35425;51.142;17.178;2022-10-31T14:39:13;1.20;;;1.10;;
39970;SDS011;35425;51.142;17.178;2022-10-31T14:49:30;1.23;;;1.10;;
39970;SDS011;35425;51.142;17.178;2022-10-31T14:51:58;1.23;;;0.95;;
39970;SDS011;35425;51.142;17.178;2022-10-31T14:54:27;1.88;;;1.40;;
39970;SDS011;35425;51.142;17.178;2022-10-31T14:56:56;1.20;;;0.95;;
39970;SDS011;35425;51.142;17.178;2022-10-31T14:59:26;1.50;;;1.15;;
39970;SDS011;35425;51.142;17.178;2022-10-31T15:01:59;1.20;;;1.00;;
39970;SDS011;35425;51.142;17.178;2022-10-31T15:04:27;1.40;;;1.10;;
39970;SDS011;35425;51.142;17.178;2022-10-31T15:07:02;1.00;;;0.90;;
39970;SDS011;35425;51.142;17.178;2022-10-31T15:09:31;2.13;;;1.33;;
39970;SDS011;35425;51.142;17.178;2022-10-31T15:11:58;1.48;;;1.20;;
39970;SDS011;35425;51.142;17.178;2022-10-31T15:14:27;1.42;;;1.33;;
39970;SDS011;35425;51.142;17.178;2022-10-31T15:16:55;1.25;;;1.15;;
39970;SDS011;35425;51.142;17.178;2022-10-31T15:19:26;1.33;;;1.10;;
39970;SDS011;35425;51.142;17.178;2022-10-31T15:21:53;1.30;;;1.20;;
39970;SDS011;35425;51.142;17.178;2022-10-31T15:24:20;1.15;;;0.90;;
39970;SDS011;35425;51.142;17.178;2022-10-31T15:26:50;1.92;;;1.20;;
39970;SDS011;35425;51.142;17.178;2022-10-31T15:29:18;1.52;;;1.08;;
39970;SDS011;35425;51.142;17.178;2022-10-31T15:34:40;1.75;;;1.27;;
39970;SDS011;35425;51.142;17.178;2022-10-31T15:37:07;1.35;;;1.00;;
39970;SDS011;35425;51.142;17.178;2022-10-31T15:39:35;1.42;;;1.02;;
39970;SDS011;35425;51.142;17.178;2022-10-31T15:42:02;1.40;;;1.10;;
39970;SDS011;35425;51.142;17.178;2022-10-31T15:44:33;1.30;;;1.17;;
39970;SDS011;35425;51.142;17.178;2022-10-31T15:47:03;1.20;;;1.10;;
39970;SDS011;35425;51.142;17.178;2022-10-31T15:49:37;1.10;;;1.00;;
39970;SDS011;35425;51.142;17.178;2022-10-31T15:52:14;1.27;;;1.10;;
39970;SDS011;35425;51.142;17.178;2022-10-31T15:54:46;1.48;;;1.30;;
39970;SDS011;35425;51.142;17.178;2022-10-31T15:57:13;1.10;;;1.00;;
39970;SDS011;35425;51.142;17.178;2022-10-31T15:59:41;1.33;;;1.23;;
39970;SDS011;35425;51.142;17.178;2022-10-31T16:02:10;1.52;;;1.20;;
39970;SDS011;35425;51.142;17.178;2022-10-31T16:04:37;1.15;;;1.00;;
39970;SDS011;35425;51.142;17.178;2022-10-31T16:07:13;0.90;;;0.90;;
39970;SDS011;35425;51.142;17.178;2022-10-31T16:09:49;1.13;;;1.02;;
39970;SDS011;35425;51.142;17.178;2022-10-31T16:12:15;1.20;;;1.10;;
39970;SDS011;35425;51.142;17.178;2022-10-31T16:14:47;1.10;;;1.00;;
39970;SDS011;35425;51.142;17.178;2022-10-31T16:17:15;1.77;;;1.20;;
39970;SDS011;35425;51.142;17.178;2022-10-31T16:19:58;1.20;;;1.10;;
39970;SDS011;35425;51.142;17.178;2022-10-31T16:22:30;1.35;;;1.20;;
39970;SDS011;35425;51.142;17.178;2022-10-31T16:27:25;1.58;;;1.13;;
39970;SDS011;35425;51.142;17.178;2022-10-31T16:29:55;1.23;;;1.13;;
39970;SDS011;35425;51.142;17.178;2022-10-31T16:32:50;1.30;;;1.00;;
39970;SDS011;35425;51.142;17.178;2022-10-31T16:35:21;1.08;;;0.98;;
39970;SDS011;35425;51.142;17.178;2022-10-31T16:37:50;1.10;;;1.00;;
39970;SDS011;35425;51.142;17.178;2022-10-31T16:40:16;1.25;;;1.10;;
39970;SDS011;35425;51.142;17.178;2022-10-31T16:42:44;1.27;;;1.08;;
39970;SDS011;35425;51.142;17.178;2022-10-31T16:45:20;1.13;;;1.00;;
39970;SDS011;35425;51.142;17.178;2022-10-31T16:47:47;1.20;;;1.00;;
39970;SDS011;35425;51.142;17.178;2022-10-31T16:50:21;1.42;;;1.33;;
39970;SDS011;35425;51.142;17.178;2022-10-31T16:52:48;1.25;;;1.15;;
39970;SDS011;35425;51.142;17.178;2022-10-31T16:55:34;1.33;;;1.23;;
39970;SDS011;35425;51.142;17.178;2022-10-31T16:58:07;1.20;;;1.10;;
39970;SDS011;35425;51.142;17.178;2022-10-31T17:00:36;1.55;;;1.30;;
39970;SDS011;35425;51.142;17.178;2022-10-31T17:03:03;1.20;;;1.10;;